Hauptseite
METAR-TAF:

METAR-TAF

Flughäfen :

Flugplatz Les Eplatures

La Chaux-de-Fonds, Schweiz

Breite: 47-05-03N, Länge: 006-47-37E, Höhe: 1027 m

Beobachtung

Neuester Wetterbericht von vor 6 Minuten, um 04:20 UTC
Windstille
Temperatur -4°C
Luftfeuchtigkeit 93%
Luftdruck 1013 hPa
Sichtweite 10 km oder mehr
Durchbrochene Bewölkung in der Höhe von 3100 ft
Durchbrochene Bewölkung in der Höhe von 6000 ft

METAR: LSGC 210420Z AUTO 00000KT 9999 BKN031 BKN060 M04/M05 Q1013

Zeit: 05:26 (04:26 UTC)

Prognose

Neuester Wetterbericht von vor 14 Stunden und 1 Minuten, um 14:25 UTC
Gültige Prognose vom 20 um 15 UTC bis 20 um 24 UTC
Wind 3 kt aus unterschiedlichen Richtungen
Sichtweite 10 km oder mehr
Durchbrochene Bewölkung in der Höhe von 2500 ft

TAF: LSGC 201425Z 2015/2024 VRB03KT 9999 BKN025

Wetterbeobachtungen und Prognosen von mehr als 4000 Flughäfen (METAR und TAF Bericht).

Die verfügbaren Stationen werden durch gelbe und rote Markierungen auf der Karte dargestellt.

Führen Sie die Maus auf sie, um den Namen der Station zu sehen.

Darauf klicken, um die Beobachtung von Wetterbeobachtungen und Prognosen zu sehen.

Um die Karte zu ändern : klicken Sie auf den grünen Tasten mit einem schwarzen Kreuz Zum Vergrößern, auf den grünen Button mit einem Gedankenstrich zu verkleinern, oder auf die grünen Pfeile für benachbarte Karten.


METAR-TAF: